Time;durP1;ratioP1;P1;durP2;ratioP2;P2;SDS_P1;SDS_P2;PMS_P1;PMS_P2;Temp;Humidity;BMP_temperature;BMP_pressure;BME280_temperature;BME280_humidity;BME280_pressure;Samples;Min_cycle;Max_cycle;Signal;HPM_P1;HPM_P2
2022/05/07 00:00:59;;;;;;;4.03;2.50;;;11.00;99.90;;;11.88;100.00;98817.19;5020979;28;21054;-76
2022/05/07 00:03:30;;;;;;;4.73;3.10;;;11.00;99.90;;;11.86;100.00;98809.50;5019783;28;20546;-75
2022/05/07 00:06:00;;;;;;;4.57;3.30;;;11.10;99.90;;;11.75;100.00;98806.47;5017860;28;20891;-75
2022/05/07 00:08:31;;;;;;;5.80;2.70;;;11.00;99.90;;;11.71;100.00;98807.81;5019391;28;20992;-76
2022/05/07 00:11:01;;;;;;;5.77;3.30;;;10.90;99.90;;;11.69;100.00;98804.53;5019430;28;20852;-76
2022/05/07 00:13:32;;;;;;;5.60;2.83;;;10.80;99.90;;;11.71;100.00;98806.03;5019687;28;20543;-76
2022/05/07 00:18:50;;;;;;;3.50;2.53;;;10.90;99.90;;;11.71;100.00;98807.81;5017858;28;20538;-76
2022/05/07 00:21:19;;;;;;;9.20;3.33;;;10.80;99.90;;;11.64;100.00;98797.19;5019014;28;20502;-75
2022/05/07 00:23:50;;;;;;;4.60;3.20;;;10.80;99.90;;;11.57;100.00;98796.25;5016609;28;20476;-75
2022/05/07 00:26:20;;;;;;;3.20;2.60;;;10.70;99.90;;;11.56;100.00;98802.47;5019017;28;20464;-75
2022/05/07 00:28:50;;;;;;;4.10;3.30;;;10.60;99.90;;;11.59;100.00;98802.16;5016698;28;20489;-75
2022/05/07 00:31:19;;;;;;;4.87;2.90;;;10.70;99.90;;;11.53;100.00;98798.41;5017655;28;20898;-75
2022/05/07 00:33:51;;;;;;;3.50;2.87;;;10.60;99.90;;;11.51;100.00;98802.22;5021083;28;20493;-75
2022/05/07 00:36:21;;;;;;;3.70;2.80;;;10.60;99.90;;;11.47;100.00;98799.13;5021241;28;20486;-75
2022/05/07 00:38:53;;;;;;;6.33;2.87;;;10.60;99.90;;;11.50;100.00;98796.16;5021206;28;20466;-75
2022/05/07 00:41:21;;;;;;;4.50;3.20;;;10.60;99.90;;;11.45;100.00;98792.44;5018898;28;20532;-75
2022/05/07 00:43:50;;;;;;;5.67;2.90;;;10.60;99.90;;;11.37;100.00;98795.91;5020895;28;20524;-76
2022/05/07 00:46:24;;;;;;;4.00;3.00;;;10.60;99.90;;;11.32;100.00;98793.00;5021593;28;20463;-75
2022/05/07 00:48:57;;;;;;;8.53;3.50;;;10.50;99.90;;;11.27;100.00;98790.09;5020465;28;20541;-76
2022/05/07 00:51:35;;;;;;;2.83;2.23;;;10.40;99.90;;;11.24;100.00;98792.25;5019852;28;20458;-75
2022/05/07 00:54:07;;;;;;;5.90;3.33;;;10.40;99.90;;;11.25;100.00;98786.81;5021109;28;20493;-75
2022/05/07 00:56:37;;;;;;;5.40;3.00;;;10.40;99.90;;;11.24;100.00;98787.81;5019923;28;20820;-76
2022/05/07 00:59:08;;;;;;;3.10;2.70;;;10.30;99.90;;;11.26;100.00;98791.06;5021660;28;20454;-76
2022/05/07 01:01:38;;;;;;;3.20;2.80;;;10.30;99.90;;;11.22;100.00;98789.78;5020885;28;20462;-76
2022/05/07 01:04:10;;;;;;;5.13;2.77;;;10.30;99.90;;;11.17;100.00;98781.66;5019856;28;20471;-75
2022/05/07 01:06:41;;;;;;;4.77;3.30;;;10.30;99.90;;;11.14;100.00;98789.84;5022543;28;20465;-75
2022/05/07 01:09:13;;;;;;;5.60;3.27;;;10.20;99.90;;;11.14;100.00;98786.41;5021033;28;20462;-75
2022/05/07 01:11:43;;;;;;;9.17;3.33;;;10.20;99.90;;;11.05;100.00;98783.81;5018841;28;20541;-75
2022/05/07 01:14:13;;;;;;;3.63;3.10;;;10.10;99.90;;;11.06;100.00;98779.41;5019361;28;20488;-75
2022/05/07 01:16:43;;;;;;;10.20;3.53;;;10.10;99.90;;;11.06;100.00;98784.66;5018601;28;20539;-75
2022/05/07 01:19:14;;;;;;;4.83;3.27;;;10.10;99.90;;;11.03;100.00;98782.38;5019903;28;21335;-76
2022/05/07 01:21:45;;;;;;;4.00;3.20;;;10.10;99.90;;;10.99;100.00;98778.47;5021946;28;20462;-75
2022/05/07 01:24:16;;;;;;;5.73;4.03;;;10.10;99.90;;;10.97;100.00;98780.41;5020905;28;20535;-75
2022/05/07 01:26:46;;;;;;;5.20;3.87;;;10.10;99.90;;;10.93;100.00;98779.94;5018817;28;20480;-75
2022/05/07 01:29:25;;;;;;;12.30;3.40;;;10.10;99.90;;;10.93;100.00;98779.94;5019794;28;20457;-75
2022/05/07 01:31:54;;;;;;;6.13;3.40;;;10.10;99.90;;;10.92;100.00;98777.50;5020129;28;20462;-76
2022/05/07 01:34:24;;;;;;;4.67;3.20;;;10.10;99.90;;;10.91;100.00;98781.94;5020812;28;20563;-76
2022/05/07 01:36:55;;;;;;;4.63;3.57;;;10.10;99.90;;;10.85;100.00;98781.81;5018410;28;20485;-75
2022/05/07 01:39:24;;;;;;;6.13;3.90;;;10.00;99.90;;;10.80;100.00;98777.06;5019394;28;21008;-75
2022/05/07 01:41:55;;;;;;;4.83;3.70;;;9.90;99.90;;;10.80;100.00;98778.88;5020349;28;20532;-76
2022/05/07 01:44:25;;;;;;;7.43;3.90;;;9.90;99.90;;;10.78;100.00;98778.22;5019177;28;20479;-76
2022/05/07 01:49:43;;;;;;;4.00;3.20;;;9.90;99.90;;;10.68;100.00;98765.38;5019398;28;20963;-75
2022/05/07 01:52:14;;;;;;;5.20;3.77;;;9.80;99.90;;;10.65;100.00;98767.50;5019575;28;21243;-75
2022/05/07 01:54:44;;;;;;;5.17;3.53;;;9.80;99.90;;;10.62;100.00;98766.00;5022066;28;20514;-75
2022/05/07 01:57:14;;;;;;;4.70;3.77;;;9.80;99.90;;;10.63;100.00;98761.59;5019368;28;20513;-75
2022/05/07 01:59:44;;;;;;;5.73;4.30;;;9.70;99.90;;;10.66;100.00;98769.13;5019864;28;20474;-76
2022/05/07 02:02:14;;;;;;;5.57;3.90;;;9.70;99.90;;;10.62;100.00;98763.41;5019196;28;20465;-75
2022/05/07 02:04:46;;;;;;;8.90;3.77;;;9.70;99.90;;;10.58;100.00;98760.34;5019746;28;20492;-75
2022/05/07 02:07:17;;;;;;;11.07;4.27;;;9.60;99.90;;;10.52;100.00;98761.00;5019622;28;20545;-76
2022/05/07 02:09:47;;;;;;;6.47;3.87;;;9.60;99.90;;;10.47;100.00;98763.31;5019645;28;20540;-75
2022/05/07 02:12:17;;;;;;;4.60;3.73;;;9.40;99.90;;;10.46;100.00;98755.63;5019414;28;20562;-75
2022/05/07 02:14:47;;;;;;;4.70;3.70;;;9.50;99.90;;;10.46;100.00;98760.84;5018299;28;20489;-75
2022/05/07 02:17:17;;;;;;;6.03;4.27;;;9.60;99.90;;;10.36;100.00;98760.22;5019693;28;20844;-75
2022/05/07 02:19:47;;;;;;;6.90;4.23;;;9.50;99.90;;;10.35;100.00;98759.41;5016600;28;21029;-75
2022/05/07 02:22:18;;;;;;;4.00;3.60;;;9.50;99.90;;;10.35;100.00;98759.41;5019736;28;20482;-76
2022/05/07 02:24:48;;;;;;;5.37;3.97;;;9.40;99.90;;;10.36;100.00;98761.06;5018707;28;20496;-75
2022/05/07 02:27:18;;;;;;;12.83;3.80;;;9.50;99.90;;;10.35;100.00;98769.88;5019818;28;20465;-75
2022/05/07 02:29:48;;;;;;;5.00;3.80;;;9.50;99.90;;;10.32;100.00;98764.97;5018675;28;20561;-75
2022/05/07 02:32:18;;;;;;;5.70;4.20;;;9.40;99.90;;;10.23;100.00;98760.78;5020158;28;20443;-75
2022/05/07 02:34:47;;;;;;;5.30;4.07;;;9.30;99.90;;;10.22;100.00;98763.53;5019679;28;20496;-75
2022/05/07 02:37:19;;;;;;;7.17;4.40;;;9.30;99.90;;;10.24;100.00;98762.38;5018967;28;20544;-76
2022/05/07 02:39:50;;;;;;;4.43;3.97;;;9.40;99.90;;;10.24;100.00;98765.00;5019218;28;20458;-76
2022/05/07 02:42:36;;;;;;;7.00;4.60;;;9.50;99.90;;;10.20;100.00;98766.34;5018222;28;20466;-75
2022/05/07 02:45:08;;;;;;;6.00;4.00;;;9.40;99.90;;;10.11;100.00;98765.50;5019389;28;20469;-75
2022/05/07 02:47:39;;;;;;;9.87;5.10;;;9.40;99.90;;;10.04;100.00;98761.09;5019108;28;20446;-75
2022/05/07 02:50:12;;;;;;;5.90;4.33;;;9.30;99.90;;;10.02;100.00;98761.28;5018181;28;20593;-75
2022/05/07 02:52:44;;;;;;;5.30;4.13;;;9.20;99.90;;;10.00;100.00;98762.38;5015324;28;20458;-75
2022/05/07 02:55:13;;;;;;;4.47;3.87;;;9.20;99.90;;;10.01;100.00;98762.25;5017107;28;20501;-75
2022/05/07 02:57:43;;;;;;;6.77;4.60;;;9.20;99.90;;;10.05;100.00;98766.16;5018282;28;20466;-75
2022/05/07 03:00:16;;;;;;;4.50;3.77;;;9.30;99.90;;;10.06;100.00;98764.38;5015147;28;20557;-75
2022/05/07 03:02:45;;;;;;;12.30;4.60;;;9.30;99.90;;;10.01;100.00;98766.66;5019031;28;20469;-75
2022/05/07 03:05:16;;;;;;;7.20;4.70;;;9.30;99.90;;;9.90;100.00;98759.97;5016130;28;21619;-85
2022/05/07 03:07:46;;;;;;;8.30;5.17;;;9.20;99.90;;;9.82;100.00;98762.56;5019074;28;20467;-76
2022/05/07 03:10:17;;;;;;;5.67;4.53;;;9.10;99.90;;;9.75;100.00;98760.81;5015687;28;21053;-75
2022/05/07 03:12:47;;;;;;;5.93;4.23;;;9.10;99.90;;;9.73;100.00;98760.13;5018772;28;20463;-75
2022/05/07 03:15:17;;;;;;;8.37;4.73;;;9.00;99.90;;;9.67;100.00;98752.97;5017534;28;20497;-75
2022/05/07 03:17:48;;;;;;;9.30;4.83;;;8.90;99.90;;;9.64;100.00;98756.72;5018362;28;20565;-75
2022/05/07 03:20:18;;;;;;;6.13;4.60;;;8.80;99.90;;;9.57;100.00;98759.19;5018045;28;20466;-76
2022/05/07 03:22:50;;;;;;;8.80;6.20;;;8.80;99.90;;;9.60;100.00;98758.03;5017993;28;20461;-75
2022/05/07 03:25:20;;;;;;;6.00;4.73;;;8.80;99.90;;;9.63;100.00;98757.69;5017118;28;20459;-75
2022/05/07 03:27:51;;;;;;;6.90;5.00;;;8.80;99.90;;;9.65;100.00;98760.16;5016488;28;20470;-83
2022/05/07 03:30:20;;;;;;;10.03;4.97;;;8.80;99.90;;;9.63;100.00;98755.09;5018315;28;20462;-75
2022/05/07 03:32:50;;;;;;;6.23;5.17;;;8.80;99.90;;;9.65;100.00;98754.94;5019378;28;20467;-75
2022/05/07 03:35:21;;;;;;;8.50;4.73;;;8.80;99.90;;;9.67;100.00;98747.75;5018509;28;20520;-75
2022/05/07 03:37:53;;;;;;;6.87;4.80;;;8.80;99.90;;;9.68;100.00;98754.59;5020124;28;20967;-76
2022/05/07 03:40:23;;;;;;;6.50;5.10;;;8.80;99.90;;;9.66;100.00;98756.53;5018474;28;20445;-75
2022/05/07 03:42:53;;;;;;;12.97;4.40;;;8.80;99.90;;;9.65;100.00;98758.34;5019141;28;20488;-75
2022/05/07 03:45:24;;;;;;;7.67;5.13;;;8.90;99.90;;;9.65;100.00;98754.94;5017459;28;20559;-75
2022/05/07 03:47:54;;;;;;;6.60;4.60;;;8.90;99.90;;;9.63;100.00;98759.47;5017983;28;20477;-82
2022/05/07 03:50:23;;;;;;;12.67;6.40;;;8.80;99.90;;;9.62;100.00;98756.06;5015519;28;20477;-75
2022/05/07 03:55:45;;;;;;;6.80;5.37;;;8.70;99.90;;;9.51;100.00;98759.00;5007444;28;21045;-76
2022/05/07 03:58:17;;;;;;;6.90;5.80;;;8.60;99.90;;;9.48;100.00;98760.13;5018038;28;20451;-75
2022/05/07 04:00:46;;;;;;;6.33;4.60;;;8.50;99.90;;;9.36;100.00;98756.22;5018609;28;20492;-75
2022/05/07 04:03:17;;;;;;;6.90;5.10;;;8.60;99.90;;;9.29;100.00;98759.63;5019727;28;20533;-75
2022/05/07 04:05:46;;;;;;;7.27;4.87;;;8.50;99.90;;;9.25;100.00;98753.91;5019261;28;20450;-75
2022/05/07 04:08:17;;;;;;;5.90;4.60;;;8.50;99.90;;;9.20;100.00;98750.16;5018484;28;20960;-75
2022/05/07 04:10:48;;;;;;;7.17;5.40;;;8.50;99.90;;;9.19;100.00;98759.78;5025697;28;20438;-75
2022/05/07 04:13:17;;;;;;;9.03;5.83;;;8.40;99.90;;;9.15;100.00;98766.28;5023908;28;20472;-75
2022/05/07 04:15:47;;;;;;;9.50;5.13;;;8.40;99.90;;;9.15;100.00;98752.44;5025205;28;20533;-76
2022/05/07 04:18:17;;;;;;;7.57;5.60;;;8.30;99.90;;;9.19;100.00;98749.34;5023612;28;20504;-75
2022/05/07 04:20:47;;;;;;;7.47;6.00;;;8.30;99.90;;;9.25;100.00;98755.72;5023223;28;20972;-75
2022/05/07 04:23:19;;;;;;;10.30;5.80;;;8.30;99.90;;;9.26;100.00;98754.75;5025565;28;20486;-76
2022/05/07 04:25:50;;;;;;;10.70;5.40;;;8.40;99.90;;;9.29;100.00;98752.63;5025147;28;20460;-75
2022/05/07 04:28:19;;;;;;;11.73;6.53;;;8.40;99.90;;;9.31;100.00;98753.25;5027747;28;20965;-75
2022/05/07 04:30:49;;;;;;;6.33;5.57;;;8.40;99.90;;;9.31;100.00;98757.66;5023394;28;21036;-75
2022/05/07 04:33:20;;;;;;;10.20;5.90;;;8.50;99.90;;;9.32;100.00;98754.91;5024805;28;20473;-75
2022/05/07 04:35:51;;;;;;;8.77;5.97;;;8.50;99.90;;;9.29;100.00;98763.06;5022252;28;20514;-75
2022/05/07 04:38:23;;;;;;;7.00;6.07;;;8.40;99.90;;;9.28;100.00;98758.00;5025021;28;20542;-75
2022/05/07 04:40:55;;;;;;;11.17;6.47;;;8.40;99.90;;;9.24;100.00;98754.88;5023208;28;20455;-75
2022/05/07 04:43:26;;;;;;;6.93;5.43;;;8.40;99.90;;;9.26;100.00;98759.97;5023189;28;20450;-75
2022/05/07 04:45:55;;;;;;;7.43;5.13;;;8.40;99.90;;;9.30;100.00;98759.44;5021195;28;20463;-76
2022/05/07 04:48:26;;;;;;;7.67;5.70;;;8.50;99.90;;;9.33;100.00;98761.78;5023967;28;20453;-75
2022/05/07 04:50:56;;;;;;;7.67;5.83;;;8.40;99.90;;;9.36;100.00;98755.41;5019931;28;20536;-75
2022/05/07 04:53:26;;;;;;;9.30;5.73;;;8.50;99.90;;;9.35;100.00;98757.19;5023028;28;20474;-75
2022/05/07 04:55:56;;;;;;;10.10;7.70;;;8.50;99.90;;;9.34;100.00;98759.94;5022009;28;20485;-75
2022/05/07 04:58:29;;;;;;;9.10;6.73;;;8.50;99.90;;;9.35;100.00;98759.81;5022408;28;20442;-75
2022/05/07 05:00:59;;;;;;;8.43;7.10;;;8.40;99.90;;;9.36;100.00;98758.84;5023430;28;20438;-75
2022/05/07 05:03:30;;;;;;;14.80;7.83;;;8.40;99.90;;;9.39;100.00;98761.13;5027582;28;20442;-75
2022/05/07 05:06:00;;;;;;;11.13;7.80;;;8.50;99.90;;;9.43;100.00;98764.22;5023267;28;20528;-75
2022/05/07 05:08:32;;;;;;;11.57;8.17;;;8.50;99.90;;;9.48;100.00;98764.53;5022485;28;20459;-75
2022/05/07 05:11:03;;;;;;;11.90;8.33;;;8.50;99.90;;;9.55;100.00;98766.34;5023025;28;21471;-75
2022/05/07 05:13:33;;;;;;;11.57;8.60;;;8.60;99.90;;;9.61;100.00;98759.66;5022519;28;20508;-75
2022/05/07 05:16:05;;;;;;;9.60;8.60;;;8.70;99.90;;;9.66;100.00;98767.00;5024041;28;20561;-75
2022/05/07 05:18:35;;;;;;;14.53;8.90;;;8.70;99.90;;;9.70;100.00;98763.06;5022723;28;20454;-75
2022/05/07 05:21:05;;;;;;;11.00;8.20;;;8.80;99.90;;;9.75;100.00;98768.63;5022889;28;20530;-75
2022/05/07 05:23:37;;;;;;;11.33;8.10;;;8.80;99.90;;;9.80;100.00;98768.94;5023066;28;20443;-75
2022/05/07 05:26:08;;;;;;;12.90;8.33;;;8.90;99.90;;;9.79;100.00;98772.56;5022428;28;20925;-75
2022/05/07 05:28:39;;;;;;;11.50;8.50;;;8.90;99.90;;;9.80;100.00;98771.56;5027759;28;20466;-75
2022/05/07 05:31:11;;;;;;;15.50;8.70;;;8.80;99.90;;;9.84;100.00;98772.88;5025945;28;20453;-75
2022/05/07 05:33:42;;;;;;;10.73;7.90;;;8.90;99.90;;;9.89;100.00;98773.22;5022833;28;20472;-75
2022/05/07 05:36:13;;;;;;;12.57;8.03;;;9.00;99.90;;;9.92;100.00;98780.72;5019051;28;20509;-75
2022/05/07 05:38:43;;;;;;;9.70;7.67;;;8.90;99.90;;;9.97;100.00;98783.63;5023422;28;20458;-75
2022/05/07 05:41:14;;;;;;;12.63;8.00;;;9.00;99.90;;;9.99;100.00;98779.06;5020851;28;20465;-76
2022/05/07 05:43:45;;;;;;;10.90;7.87;;;9.00;99.90;;;9.99;100.00;98779.88;5022371;28;20469;-75
2022/05/07 05:46:16;;;;;;;12.47;7.67;;;9.10;99.90;;;10.02;100.00;98781.34;5022398;28;20481;-75
2022/05/07 05:48:47;;;;;;;11.37;7.60;;;9.10;99.90;;;10.07;100.00;98781.66;5022464;28;20442;-75
2022/05/07 05:51:16;;;;;;;10.17;7.87;;;9.00;99.90;;;10.10;100.00;98773.47;5022095;28;20455;-75
2022/05/07 05:53:49;;;;;;;11.53;8.93;;;9.10;99.90;;;10.16;100.00;98774.66;5022786;28;20443;-75
2022/05/07 05:56:19;;;;;;;13.43;7.60;;;9.20;99.90;;;10.22;100.00;98774.00;5022958;28;20497;-75
2022/05/07 05:58:50;;;;;;;9.20;7.97;;;9.30;99.90;;;10.27;100.00;98777.75;5021605;28;20446;-75
2022/05/07 06:01:21;;;;;;;11.70;7.80;;;9.40;99.90;;;10.33;100.00;98776.25;5021663;28;20526;-75
2022/05/07 06:03:51;;;;;;;9.97;8.47;;;9.40;99.90;;;10.40;100.00;98777.22;5022678;28;20532;-75
2022/05/07 06:06:22;;;;;;;11.83;7.93;;;9.50;99.90;;;10.44;100.00;98781.97;5022986;28;20463;-75
2022/05/07 06:08:54;;;;;;;10.93;7.80;;;9.50;99.90;;;10.51;100.00;98784.72;5021114;28;20508;-75
2022/05/07 06:11:25;;;;;;;14.70;7.47;;;9.60;99.90;;;10.56;100.00;98777.97;5021211;28;20853;-75
2022/05/07 06:13:54;;;;;;;10.47;8.43;;;9.60;99.90;;;10.60;100.00;98774.06;5022884;28;20542;-75
2022/05/07 06:16:25;;;;;;;11.13;8.87;;;9.60;99.90;;;10.66;100.00;98774.34;5023306;28;20484;-75
2022/05/07 06:18:58;;;;;;;11.53;9.50;;;9.60;99.90;;;10.70;100.00;98781.69;5020745;28;20493;-75
2022/05/07 06:21:27;;;;;;;14.20;8.80;;;9.70;99.90;;;10.75;100.00;98776.78;5022989;28;20565;-75
2022/05/07 06:27:28;;;;;;;15.60;9.80;;;9.70;99.90;;;10.80;100.00;98771.00;5022164;28;20470;-75
2022/05/07 06:29:34;;;;;;;12.73;9.40;;;9.80;99.90;;;10.94;100.00;98780.75;5021943;28;20484;-75
2022/05/07 06:32:06;;;;;;;11.50;10.10;;;9.90;99.90;;;11.00;100.00;98774.88;5021933;28;20569;-75
2022/05/07 06:34:36;;;;;;;12.10;9.50;;;10.00;99.90;;;11.06;100.00;98774.19;5021594;28;20453;-75
2022/05/07 06:37:06;;;;;;;15.67;10.60;;;10.10;99.90;;;11.13;100.00;98775.13;5020702;28;20521;-75
2022/05/07 06:39:38;;;;;;;13.60;9.93;;;10.20;99.90;;;11.21;100.00;98779.50;5022221;28;20826;-75
2022/05/07 06:42:09;;;;;;;14.90;12.07;;;10.30;99.90;;;11.28;100.00;98778.59;5021052;28;20459;-75
2022/05/07 06:44:39;;;;;;;13.63;10.20;;;10.40;99.90;;;11.35;100.00;98776.94;5020688;28;20482;-75
2022/05/07 06:47:11;;;;;;;15.13;9.93;;;10.50;99.90;;;11.42;100.00;98767.38;5021868;28;20465;-75
2022/05/07 06:49:41;;;;;;;13.73;10.20;;;10.50;99.90;;;11.51;100.00;98771.59;5021807;28;21022;-75
2022/05/07 06:52:10;;;;;;;13.50;10.53;;;10.60;99.90;;;11.57;100.00;98770.06;5020937;28;20469;-75
2022/05/07 06:54:42;;;;;;;15.63;11.20;;;10.70;99.90;;;11.63;100.00;98767.56;5021866;28;20447;-75
2022/05/07 06:57:11;;;;;;;13.73;10.70;;;10.70;99.90;;;11.73;100.00;98766.56;5020214;28;20485;-75
2022/05/07 06:59:43;;;;;;;15.47;11.33;;;10.90;99.90;;;11.80;100.00;98760.41;5020784;28;20455;-75
2022/05/07 07:02:15;;;;;;;11.80;9.70;;;10.90;99.90;;;11.88;100.00;98757.72;5021275;28;20459;-75
2022/05/07 07:04:45;;;;;;;16.50;10.73;;;11.00;99.90;;;11.98;100.00;98765.34;5021570;28;20450;-75
2022/05/07 07:07:16;;;;;;;17.63;12.57;;;11.20;99.90;;;12.05;100.00;98755.75;5023026;28;20466;-75
2022/05/07 07:09:52;;;;;;;15.97;11.17;;;11.30;99.90;;;12.15;100.00;98761.56;5021024;28;20447;-75
2022/05/07 07:12:21;;;;;;;16.90;11.90;;;11.40;99.90;;;12.24;100.00;98762.31;5021152;28;20453;-75
2022/05/07 07:15:05;;;;;;;16.67;11.90;;;11.50;99.90;;;12.33;100.00;98759.41;5019390;28;20911;-75
2022/05/07 07:17:36;;;;;;;18.10;10.63;;;11.60;99.90;;;12.42;100.00;98763.59;5020441;28;20568;-75
2022/05/07 07:20:08;;;;;;;13.80;10.70;;;11.60;99.90;;;12.52;100.00;98763.31;5019884;28;20439;-75
2022/05/07 07:22:37;;;;;;;15.33;11.63;;;11.80;99.90;;;12.61;100.00;98757.78;5021345;28;20443;-75
2022/05/07 07:25:11;;;;;;;14.40;10.17;;;11.90;99.90;;;12.70;100.00;98755.06;5020872;28;20455;-75
2022/05/07 07:27:40;;;;;;;19.47;10.93;;;12.00;99.90;;;12.78;100.00;98758.38;5022099;28;20565;-75
2022/05/07 07:30:12;;;;;;;13.87;10.47;;;12.10;99.90;;;12.87;100.00;98756.50;5022475;28;20921;-75
2022/05/07 07:32:42;;;;;;;14.27;10.80;;;12.20;99.90;;;12.95;100.00;98751.94;5021292;28;20459;-75
2022/05/07 07:35:12;;;;;;;18.93;10.23;;;12.30;99.90;;;13.05;100.00;98754.28;5019786;28;20562;-75
2022/05/07 07:37:45;;;;;;;17.40;9.17;;;12.40;99.90;;;13.15;100.00;98754.84;5020253;28;21058;-75
2022/05/07 07:40:16;;;;;;;26.83;9.80;;;12.40;99.90;;;13.25;100.00;98755.34;5019980;28;20459;-75
2022/05/07 07:42:46;;;;;;;12.83;8.70;;;12.60;99.90;;;13.34;100.00;98748.94;5021147;28;20546;-75
2022/05/07 07:48:04;;;;;;;12.37;8.30;;;12.80;99.90;;;13.55;100.00;98756.03;5019663;28;20485;-75
2022/05/07 07:50:35;;;;;;;10.80;8.10;;;12.90;99.90;;;13.65;100.00;98747.81;5020035;28;20458;-75
2022/05/07 07:53:06;;;;;;;11.60;7.10;;;13.00;99.90;;;13.73;100.00;98747.69;5021073;28;21010;-75
2022/05/07 07:55:39;;;;;;;14.67;7.03;;;13.10;99.90;;;13.82;100.00;98752.63;5021603;28;20450;-75
2022/05/07 07:58:12;;;;;;;11.43;5.57;;;13.30;99.90;;;13.93;100.00;98749.47;5019791;28;20597;-75
2022/05/07 08:00:44;;;;;;;6.37;5.20;;;13.40;99.90;;;14.04;100.00;98742.88;5017889;28;20470;-75
2022/05/07 08:03:16;;;;;;;7.23;5.60;;;13.50;99.90;;;14.13;100.00;98744.34;5020886;28;20520;-75
2022/05/07 08:05:49;;;;;;;9.97;6.07;;;13.60;99.90;;;14.24;100.00;98741.19;5020305;28;20473;-75
2022/05/07 08:13:55;;;;;;;8.27;4.03;;;14.00;99.90;;;14.55;100.00;98741.59;5021002;28;20457;-75
2022/05/07 08:16:25;;;;;;;8.70;4.70;;;14.10;99.90;;;14.66;100.00;98739.41;5019998;28;20461;-75
2022/05/07 08:18:57;;;;;;;4.73;3.00;;;14.20;99.90;;;14.75;100.00;98736.41;5020941;28;20944;-75
2022/05/07 08:21:27;;;;;;;7.20;3.80;;;14.30;99.90;;;14.88;97.55;98735.69;5019210;28;21412;-76
2022/05/07 08:23:57;;;;;;;5.80;3.30;;;14.50;99.90;;;14.99;94.98;98741.16;5019786;28;20477;-75
2022/05/07 08:26:27;;;;;;;4.37;2.83;;;14.60;99.90;;;15.12;96.18;98740.41;5019989;28;20459;-75
2022/05/07 08:28:57;;;;;;;7.40;3.30;;;14.60;99.90;;;15.21;95.77;98741.03;5023967;28;20968;-75
2022/05/07 08:31:28;;;;;;;3.20;2.90;;;14.70;99.90;;;15.30;95.62;98743.31;5019075;28;20459;-75
2022/05/07 08:33:58;;;;;;;10.33;3.50;;;14.80;99.90;;;15.38;93.09;98735.19;5019284;28;20474;-75
2022/05/07 08:36:28;;;;;;;3.37;2.40;;;14.90;99.80;;;15.50;93.04;98738.09;5021090;28;20482;-75
2022/05/07 08:38:57;;;;;;;4.93;2.53;;;15.00;99.80;;;15.55;92.61;98727.72;5021604;28;21067;-75
2022/05/07 08:41:28;;;;;;;3.17;2.20;;;15.00;99.00;;;15.61;90.11;98729.59;5019124;28;20500;-75
2022/05/07 08:43:59;;;;;;;5.00;1.90;;;15.10;99.00;;;15.67;89.66;98728.75;5019721;28;20474;-75
2022/05/07 08:46:29;;;;;;;4.33;2.30;;;15.10;98.80;;;15.73;86.65;98727.13;5021331;28;20470;-76
2022/05/07 08:48:59;;;;;;;2.03;1.80;;;15.20;98.00;;;15.80;83.43;98733.22;5021289;28;20461;-75
2022/05/07 08:51:30;;;;;;;2.70;1.70;;;15.30;97.50;;;15.85;78.90;98726.34;5020747;28;20960;-75
2022/05/07 08:54:02;;;;;;;5.87;1.97;;;15.40;96.50;;;15.93;78.80;98725.31;5023807;28;20836;-75
2022/05/07 08:56:33;;;;;;;2.43;1.90;;;15.40;96.00;;;15.99;76.26;98727.13;5023062;28;20447;-75
2022/05/07 08:59:02;;;;;;;8.07;2.10;;;15.50;95.80;;;16.06;73.82;98727.94;5023369;28;20446;-75
2022/05/07 09:01:33;;;;;;;4.80;2.03;;;15.60;95.20;;;16.14;74.32;98727.72;5022390;28;20481;-75
2022/05/07 09:04:11;;;;;;;5.20;2.23;;;15.70;95.40;;;16.21;72.43;98725.88;5023353;28;20462;-75
2022/05/07 09:06:39;;;;;;;6.90;2.37;;;15.70;94.90;;;16.28;72.88;98720.59;5021654;28;20504;-75
2022/05/07 09:09:09;;;;;;;2.30;1.90;;;15.80;95.00;;;16.36;72.83;98726.44;5026116;28;20952;-75
2022/05/07 09:11:44;;;;;;;4.07;2.50;;;15.90;94.90;;;16.40;70.78;98719.75;5024553;28;20572;-75
2022/05/07 09:14:18;;;;;;;5.50;2.30;;;16.00;94.50;;;16.46;70.94;98724.19;5022415;28;20541;-75
2022/05/07 09:16:50;;;;;;;7.17;3.00;;;16.10;94.50;;;16.53;70.90;98718.88;5023146;28;20488;-75
2022/05/07 09:19:23;;;;;;;3.83;2.57;;;16.10;94.60;;;16.59;71.49;98721.53;5023795;28;20840;-75
2022/05/07 09:21:54;;;;;;;4.50;2.77;;;16.10;94.30;;;16.71;69.27;98726.97;5024004;28;20457;-75
2022/05/07 09:24:24;;;;;;;5.10;2.37;;;16.30;94.20;;;16.78;68.96;98726.97;5023152;28;20846;-75
2022/05/07 09:26:58;;;;;;;4.27;2.20;;;16.30;94.10;;;16.85;68.92;98717.16;5022670;28;20501;-75
2022/05/07 09:29:30;;;;;;;6.67;2.00;;;16.40;94.20;;;16.89;67.55;98719.19;5028763;28;20457;-75
2022/05/07 09:32:10;;;;;;;5.23;2.27;;;16.50;93.70;;;16.97;66.11;98711.00;5027540;28;20508;-75
2022/05/07 09:37:38;;;;;;;4.40;2.17;;;16.50;93.60;;;17.08;65.27;98712.97;5027593;28;20493;-75
2022/05/07 09:40:11;;;;;;;4.90;2.50;;;16.60;93.20;;;17.15;65.73;98707.66;5028311;28;20508;-75
2022/05/07 09:42:44;;;;;;;8.50;2.87;;;16.70;93.50;;;17.20;66.46;98710.47;5028029;28;20805;-76
2022/05/07 09:45:14;;;;;;;6.00;2.20;;;16.70;93.50;;;17.23;64.92;98710.06;5023769;28;20451;-75
2022/05/07 09:47:47;;;;;;;3.63;2.40;;;16.70;93.10;;;17.27;65.29;98698.03;5022190;28;20814;-74
2022/05/07 09:50:22;;;;;;;3.67;1.93;;;16.70;93.20;;;17.29;65.97;98693.34;5022030;28;20513;-75
2022/05/07 09:58:27;;;;;;;5.87;2.60;;;16.80;93.40;;;17.44;63.57;98700.97;5019950;28;20488;-75
2022/05/07 10:02:01;;;;;;;5.33;2.40;;;16.90;92.60;;;17.49;62.06;98699.28;5022390;28;20967;-75
2022/05/07 10:05:09;;;;;;;4.20;2.10;;;17.00;92.10;;;17.52;61.51;98698.88;4978068;28;20493;-75
2022/05/07 10:08:13;;;;;;;3.70;2.27;;;17.00;92.20;;;17.53;61.11;98695.19;5022538;28;20450;-75
2022/05/07 10:10:46;;;;;;;4.03;1.90;;;17.00;91.80;;;17.58;61.66;98690.09;5024000;28;20461;-74
2022/05/07 10:13:19;;;;;;;2.83;2.23;;;17.00;92.10;;;17.60;63.17;98685.41;5020871;28;20486;-75
2022/05/07 10:16:01;;;;;;;7.40;2.07;;;17.00;92.80;;;17.66;62.99;98694.31;5022935;28;20998;-75
2022/05/07 10:18:43;;;;;;;7.07;1.97;;;17.10;92.80;;;17.71;61.15;98683.06;5021787;28;20482;-75
2022/05/07 10:21:15;;;;;;;3.87;2.13;;;17.10;91.70;;;17.76;59.98;98684.06;5021627;28;20453;-75
2022/05/07 10:23:56;;;;;;;3.20;1.80;;;17.20;91.90;;;17.83;61.15;98679.53;5021922;28;20454;-75
2022/05/07 10:26:40;;;;;;;4.37;2.30;;;17.30;92.30;;;17.92;59.70;98678.19;5020595;28;20453;-75
2022/05/07 10:29:20;;;;;;;4.23;2.20;;;17.40;91.70;;;17.98;58.40;98674.69;5022048;28;20987;-75
2022/05/07 10:31:51;;;;;;;6.30;2.43;;;17.60;91.30;;;18.07;59.25;98673.38;5022218;28;20449;-75
2022/05/07 10:34:28;;;;;;;7.37;2.10;;;17.60;91.70;;;18.16;58.71;98668.59;5021729;28;20443;-75
2022/05/07 10:37:06;;;;;;;3.10;2.10;;;17.80;91.60;;;18.30;58.20;98672.72;5022631;28;20455;-75
2022/05/07 10:39:37;;;;;;;3.70;2.20;;;17.90;91.30;;;18.41;57.21;98676.47;5021141;28;20555;-75
2022/05/07 10:42:16;;;;;;;2.53;1.80;;;18.00;90.90;;;18.51;57.61;98677.59;5023200;28;20482;-75
2022/05/07 10:44:45;;;;;;;3.00;1.87;;;18.10;91.30;;;18.61;57.82;98677.06;5023329;28;20629;-76
2022/05/07 10:47:19;;;;;;;3.10;1.97;;;18.20;91.40;;;18.70;57.77;98678.41;5022726;28;20462;-74
2022/05/07 10:49:56;;;;;;;2.07;1.67;;;18.20;90.90;;;18.77;57.55;98673.81;5020889;28;20469;-75
2022/05/07 10:52:35;;;;;;;2.80;1.77;;;18.30;91.20;;;18.84;56.40;98676.38;5021506;28;20461;-75
2022/05/07 10:55:11;;;;;;;6.20;2.00;;;18.30;90.60;;;18.90;56.65;98675.47;5021296;28;21232;-75
2022/05/07 10:57:47;;;;;;;5.80;1.80;;;18.40;90.90;;;18.96;56.38;98663.97;5021327;28;21023;-75
2022/05/07 11:00:19;;;;;;;4.90;2.10;;;18.40;90.60;;;19.02;55.87;98669.16;5021438;28;20463;-75
2022/05/07 11:02:58;;;;;;;3.80;2.00;;;18.50;90.50;;;19.06;55.73;98670.34;5021073;28;20485;-75